Time;durP1;ratioP1;P1;durP2;ratioP2;P2;SDS_P1;SDS_P2;PMS_P1;PMS_P2;Temp;Humidity;BMP_temperature;BMP_pressure;BME280_temperature;BME280_humidity;BME280_pressure;Samples;Min_cycle;Max_cycle;Signal;HPM_P1;HPM_P2
2022/09/17 00:00:48;;;;;;;9.35;1.25;;;;;;;14.04;81.31;101525.88;5027259;28;20100;-66
2022/09/17 00:03:14;;;;;;;10.85;1.83;;;;;;;14.00;81.77;101540.16;5027053;28;20686;-65
2022/09/17 00:05:39;;;;;;;16.35;1.70;;;;;;;13.78;83.74;101538.28;5027284;28;20138;-67
2022/09/17 00:08:06;;;;;;;9.18;1.35;;;;;;;13.76;84.27;101534.84;5027151;28;20021;-67
2022/09/17 00:10:32;;;;;;;12.00;1.45;;;;;;;13.75;84.57;101533.09;5027964;28;20108;-67
2022/09/17 00:12:58;;;;;;;11.90;1.85;;;;;;;13.45;85.48;101531.44;5025885;28;20036;-67
2022/09/17 00:15:23;;;;;;;9.98;1.67;;;;;;;13.69;83.85;101533.34;5026693;28;20017;-66
2022/09/17 00:17:54;;;;;;;18.55;2.42;;;;;;;13.88;83.13;101522.94;5027000;28;20071;-65
2022/09/17 00:20:20;;;;;;;9.20;1.65;;;;;;;13.92;82.59;101534.25;5027891;28;20043;-65
2022/09/17 00:22:46;;;;;;;11.32;1.95;;;;;;;13.93;82.27;101533.38;5028281;28;20036;-68
2022/09/17 00:25:11;;;;;;;14.80;1.60;;;;;;;13.80;82.50;101536.44;5026045;28;20025;-64
2022/09/17 00:27:36;;;;;;;12.40;2.40;;;;;;;13.81;81.89;101551.41;5027437;28;20039;-68
2022/09/17 00:30:02;;;;;;;12.60;2.22;;;;;;;13.83;81.50;101552.22;5026774;28;20057;-67
2022/09/17 00:32:27;;;;;;;16.10;2.20;;;;;;;13.84;81.25;101545.13;5027078;28;20403;-65
2022/09/17 00:34:52;;;;;;;17.20;2.40;;;;;;;13.95;80.63;101547.41;5028045;28;20033;-67
2022/09/17 00:37:18;;;;;;;21.25;1.90;;;;;;;13.98;80.71;101561.41;5026850;28;20026;-68
2022/09/17 00:39:44;;;;;;;11.43;1.90;;;;;;;13.89;80.41;101551.13;5027231;28;20033;-66
2022/09/17 00:42:13;;;;;;;8.57;1.95;;;;;;;13.86;80.00;101552.13;5042552;28;20017;-67
2022/09/17 00:44:49;;;;;;;14.25;2.28;;;;;;;13.88;79.98;101560.03;5026769;28;20037;-66
2022/09/17 00:47:14;;;;;;;12.25;1.65;;;;;;;13.80;80.64;101552.34;5027121;28;20423;-65
2022/09/17 00:49:40;;;;;;;17.88;2.20;;;;;;;13.74;81.02;101553.44;5026957;28;20032;-66
2022/09/17 00:52:09;;;;;;;9.48;1.35;;;;;;;13.50;81.18;101560.44;5026349;28;20475;-64
2022/09/17 00:54:38;;;;;;;8.70;1.25;;;;;;;13.21;82.53;101549.91;5027328;28;20033;-69
2022/09/17 00:57:04;;;;;;;9.02;1.05;;;;;;;13.23;83.01;101536.63;5025613;28;20036;-63
2022/09/17 00:59:29;;;;;;;8.18;1.23;;;;;;;13.24;81.66;101533.06;5027555;28;20431;-67
2022/09/17 01:04:24;;;;;;;;;;;;;;;13.29;80.97;101523.19;5026039;28;20057;-66
2022/09/17 01:07:17;;;;;;;8.05;1.30;;;;;;;13.44;79.57;101523.56;5027663;28;20286;-67
2022/09/17 01:09:47;;;;;;;7.75;1.25;;;;;;;13.36;79.80;101521.19;5026202;28;20040;-65
2022/09/17 01:12:16;;;;;;;10.73;1.92;;;;;;;13.29;80.34;101520.53;5029558;28;20029;-65
2022/09/17 01:14:56;;;;;;;12.00;2.10;;;;;;;13.48;79.81;101519.88;5029402;28;20495;-66
2022/09/17 01:17:29;;;;;;;8.35;1.70;;;;;;;13.60;79.07;101529.22;5031155;28;20033;-65
2022/09/17 01:20:04;;;;;;;6.88;1.27;;;;;;;13.61;79.28;101531.81;5030078;28;20110;-65
2022/09/17 01:22:35;;;;;;;12.32;1.65;;;;;;;13.67;79.22;101529.88;5050004;28;20029;-65
2022/09/17 01:25:17;;;;;;;8.63;1.60;;;;;;;13.59;79.71;101536.31;5051076;28;20036;-66
2022/09/17 01:28:07;;;;;;;7.93;1.30;;;;;;;13.49;80.21;101533.09;5049690;28;20029;-66
2022/09/17 01:30:53;;;;;;;6.80;1.20;;;;;;;13.45;80.71;101525.31;5051109;28;20029;-66
2022/09/17 01:33:39;;;;;;;8.70;1.58;;;;;;;13.30;81.10;101543.44;5038114;28;20116;-64
2022/09/17 01:36:21;;;;;;;4.97;1.55;;;;;;;13.20;81.46;101548.19;5031532;28;20029;-65
2022/09/17 01:39:25;;;;;;;11.38;1.77;;;;;;;13.11;82.37;101545.84;5030357;28;20105;-65
2022/09/17 01:41:59;;;;;;;6.75;1.25;;;;;;;13.00;82.71;101541.78;5030949;28;20036;-65
2022/09/17 01:44:37;;;;;;;7.88;1.40;;;;;;;12.92;83.43;101538.53;5034221;28;20028;-66
2022/09/17 01:47:16;;;;;;;9.45;1.40;;;;;;;12.88;84.11;101543.03;5050178;28;20029;-65
2022/09/17 01:49:41;;;;;;;;;;;;;;;12.88;84.09;101545.69;5048764;28;20025;-65
2022/09/17 01:52:08;;;;;;;12.23;1.65;;;;;;;12.88;84.32;101545.69;5050555;28;19915;-65
2022/09/17 01:54:39;;;;;;;10.00;1.63;;;;;;;12.87;84.52;101549.25;5050314;28;20067;-65
2022/09/17 01:57:08;;;;;;;8.48;1.25;;;;;;;12.86;84.43;101544.84;5038838;28;20030;-65
2022/09/17 01:59:40;;;;;;;8.45;1.45;;;;;;;12.87;84.77;101557.19;5030487;28;20018;-65
2022/09/17 02:02:20;;;;;;;7.90;1.40;;;;;;;12.92;84.50;101556.16;5026893;28;20029;-65
2022/09/17 02:04:51;;;;;;;9.38;1.50;;;;;;;13.00;84.49;101565.59;5030042;28;20109;-66
2022/09/17 02:07:19;;;;;;;12.45;2.08;;;;;;;13.10;83.67;101576.72;5029773;28;20079;-65
2022/09/17 02:09:52;;;;;;;10.23;1.90;;;;;;;13.00;83.01;101588.50;5045518;28;20417;-66
2022/09/17 02:12:20;;;;;;;15.77;2.30;;;;;;;13.10;82.51;101568.78;5050238;28;20036;-65
2022/09/17 02:14:48;;;;;;;23.85;2.83;;;;;;;13.21;82.46;101572.84;5048826;28;20647;-66
2022/09/17 02:17:31;;;;;;;15.57;2.97;;;;;;;13.32;82.54;101567.19;5048637;28;20032;-65
2022/09/17 02:19:57;;;;;;;17.15;2.17;;;;;;;13.38;82.17;101561.72;5047230;28;20025;-65
2022/09/17 02:22:39;;;;;;;18.60;2.20;;;;;;;13.29;81.93;101557.59;5029139;28;20030;-65
2022/09/17 02:25:14;;;;;;;14.07;2.05;;;;;;;13.43;81.37;101558.91;5028313;28;20677;-63
2022/09/17 02:28:16;;;;;;;18.20;3.50;;;;;;;13.38;81.60;101552.00;5009039;28;20040;-63
2022/09/17 02:30:41;;;;;;;8.55;2.30;;;;;;;13.40;81.35;101552.78;4989580;28;20045;-66
2022/09/17 02:33:08;;;;;;;10.68;2.22;;;;;;;13.33;80.69;101559.22;5008849;28;20042;-65
2022/09/17 02:35:35;;;;;;;14.25;2.40;;;;;;;13.36;80.07;101559.13;5024844;28;20182;-66
2022/09/17 02:38:00;;;;;;;15.57;2.10;;;;;;;13.44;79.96;101568.56;5010324;28;20373;-65
2022/09/17 02:40:29;;;;;;;16.60;2.00;;;;;;;13.52;79.55;101572.72;5045069;28;20048;-65
2022/09/17 02:43:06;;;;;;;14.60;2.33;;;;;;;13.50;79.12;101586.94;5047759;28;20021;-65
2022/09/17 02:46:00;;;;;;;10.57;1.67;;;;;;;13.37;77.69;101581.16;5031440;28;20048;-66
2022/09/17 02:48:33;;;;;;;20.42;2.50;;;;;;;13.62;75.20;101581.22;5036486;28;20021;-65
2022/09/17 02:51:11;;;;;;;15.52;1.83;;;;;;;13.76;74.55;101574.56;5048469;28;20060;-64
2022/09/17 02:54:14;;;;;;;11.40;1.80;;;;;;;13.69;73.09;101568.59;5048363;28;20033;-65
2022/09/17 02:56:50;;;;;;;7.03;1.40;;;;;;;13.77;72.46;101571.00;5049614;28;20609;-64
2022/09/17 02:59:36;;;;;;;4.40;1.17;;;;;;;13.75;72.74;101568.41;5049710;28;20025;-63
2022/09/17 03:02:11;;;;;;;10.80;1.60;;;;;;;13.84;72.76;101580.44;5047534;28;20063;-66
2022/09/17 03:04:37;;;;;;;10.07;1.95;;;;;;;13.59;72.74;101586.63;5048621;28;20048;-66
2022/09/17 03:07:10;;;;;;;10.65;1.85;;;;;;;13.54;69.91;101559.41;5049181;28;20044;-66
2022/09/17 03:09:36;;;;;;;10.93;1.80;;;;;;;13.97;71.38;101562.31;5047890;28;20029;-66
2022/09/17 03:12:03;;;;;;;11.85;1.85;;;;;;;13.99;72.19;101567.56;5048210;28;20032;-64
2022/09/17 03:14:28;;;;;;;11.23;1.77;;;;;;;13.93;72.38;101557.22;5049308;28;20040;-65
2022/09/17 03:16:53;;;;;;;10.00;1.50;;;;;;;14.08;72.74;101553.97;5048045;28;20021;-64
2022/09/17 03:19:18;;;;;;;15.73;2.10;;;;;;;14.03;72.99;101575.34;5049068;28;20025;-64
2022/09/17 03:21:44;;;;;;;13.52;1.80;;;;;;;13.99;74.36;101594.03;5049330;28;20642;-67
2022/09/17 03:24:10;;;;;;;9.55;1.70;;;;;;;13.83;76.40;101576.06;5044346;28;20481;-64
2022/09/17 03:26:36;;;;;;;10.45;1.88;;;;;;;13.87;75.73;101564.44;5028998;28;20037;-63
2022/09/17 03:29:02;;;;;;;9.55;1.60;;;;;;;13.78;77.00;101559.47;5028547;28;20029;-62
2022/09/17 03:31:28;;;;;;;15.73;1.95;;;;;;;13.75;78.44;101564.88;5028233;28;20029;-65
2022/09/17 03:33:53;;;;;;;9.63;1.80;;;;;;;13.74;78.98;101563.16;5028653;28;20029;-64
2022/09/17 03:36:19;;;;;;;14.05;2.13;;;;;;;13.78;78.94;101551.53;5023153;28;20160;-64
2022/09/17 03:38:44;;;;;;;12.63;1.92;;;;;;;13.73;79.57;101566.72;5026731;28;20063;-67
2022/09/17 03:41:10;;;;;;;16.70;2.38;;;;;;;13.74;80.14;101565.81;5028379;28;20021;-64
2022/09/17 03:43:35;;;;;;;7.45;1.60;;;;;;;13.45;79.74;101562.38;5023794;28;20033;-67
2022/09/17 03:46:01;;;;;;;12.02;1.73;;;;;;;13.68;77.45;101569.53;5027902;28;20437;-67
2022/09/17 03:48:26;;;;;;;12.82;2.03;;;;;;;13.74;77.47;101552.56;5028341;28;20187;-66
2022/09/17 03:50:51;;;;;;;9.60;1.67;;;;;;;13.83;77.18;101556.66;5047360;28;20029;-65
2022/09/17 03:53:17;;;;;;;16.23;1.95;;;;;;;13.77;77.00;101549.81;5048763;28;20041;-67
2022/09/17 03:55:42;;;;;;;11.60;1.65;;;;;;;13.80;77.00;101551.47;5029754;28;20018;-66
2022/09/17 03:58:07;;;;;;;7.70;1.40;;;;;;;13.76;76.62;101562.16;5027206;28;20747;-66
2022/09/17 04:00:35;;;;;;;8.20;1.30;;;;;;;13.73;76.09;101569.38;5028759;28;20032;-67
2022/09/17 04:03:01;;;;;;;7.30;1.60;;;;;;;13.56;76.41;101567.31;5038458;28;20572;-64
2022/09/17 04:05:26;;;;;;;11.65;1.30;;;;;;;13.81;75.71;101569.97;5036109;28;20033;-65
2022/09/17 04:07:51;;;;;;;5.97;1.85;;;;;;;13.68;76.44;101569.53;5042879;28;20060;-67
2022/09/17 04:10:17;;;;;;;8.50;1.05;;;;;;;13.70;76.50;101572.13;5038985;28;20464;-65
2022/09/17 04:12:42;;;;;;;9.02;1.45;;;;;;;13.62;76.96;101573.28;5028257;28;20033;-65
2022/09/17 04:15:08;;;;;;;10.07;1.75;;;;;;;13.63;76.91;101582.94;5044214;28;20033;-66
2022/09/17 04:17:33;;;;;;;6.47;1.30;;;;;;;13.59;77.39;101580.44;5033436;28;20025;-63
2022/09/17 04:19:59;;;;;;;7.50;1.10;;;;;;;13.48;77.64;101578.13;5039474;28;20043;-65
2022/09/17 04:22:25;;;;;;;7.65;1.27;;;;;;;13.44;77.91;101582.69;5038775;28;20367;-64
2022/09/17 04:24:50;;;;;;;6.90;1.08;;;;;;;13.33;78.26;101580.38;5042344;28;20033;-63
2022/09/17 04:27:15;;;;;;;10.55;1.70;;;;;;;13.29;78.84;101584.06;5039010;28;20028;-65
2022/09/17 04:29:41;;;;;;;7.47;1.75;;;;;;;13.17;79.13;101579.16;5035796;28;20032;-65
2022/09/17 04:32:06;;;;;;;7.13;1.30;;;;;;;13.22;78.79;101577.25;5040268;28;20071;-64
2022/09/17 04:34:32;;;;;;;4.88;1.30;;;;;;;13.23;79.05;101582.50;5044782;28;20123;-66
2022/09/17 04:36:57;;;;;;;8.77;1.40;;;;;;;13.18;79.25;101587.06;5044224;28;20495;-66
2022/09/17 04:39:22;;;;;;;7.18;1.58;;;;;;;13.22;79.80;101587.84;5029491;28;20044;-64
2022/09/17 04:41:47;;;;;;;6.90;1.27;;;;;;;13.25;80.64;101622.13;5042004;28;20112;-64
2022/09/17 04:44:13;;;;;;;8.63;1.63;;;;;;;13.12;81.39;101632.22;5037731;28;20064;-67
2022/09/17 04:46:38;;;;;;;16.35;2.15;;;;;;;12.75;82.78;101627.19;5037658;28;20029;-65
2022/09/17 04:49:04;;;;;;;9.05;1.45;;;;;;;12.76;82.43;101622.75;5044430;28;20018;-67
2022/09/17 04:51:29;;;;;;;6.90;1.45;;;;;;;12.83;81.43;101629.63;5047821;28;20059;-67
2022/09/17 04:53:54;;;;;;;7.05;1.30;;;;;;;12.60;82.29;101617.06;5048301;28;20116;-67
2022/09/17 04:56:20;;;;;;;3.25;0.93;;;;;;;12.73;81.19;101614.91;5048898;28;20108;-67
2022/09/17 04:58:45;;;;;;;5.03;0.88;;;;;;;12.85;81.08;101609.25;5050471;28;20348;-66
2022/09/17 05:01:12;;;;;;;6.70;1.33;;;;;;;12.82;80.19;101612.00;5045693;28;20430;-65
2022/09/17 05:03:38;;;;;;;5.88;1.00;;;;;;;12.81;80.05;101610.28;5037802;28;20045;-63
2022/09/17 05:06:03;;;;;;;7.68;1.33;;;;;;;12.79;79.90;101604.16;5041251;28;20755;-65
2022/09/17 05:08:29;;;;;;;3.05;1.00;;;;;;;12.87;79.52;101603.91;5037543;28;20034;-64
2022/09/17 05:10:55;;;;;;;3.78;1.00;;;;;;;12.97;79.69;101601.84;5031643;28;20080;-63
2022/09/17 05:13:20;;;;;;;7.30;1.20;;;;;;;12.98;79.62;101596.50;5048710;28;20064;-64
2022/09/17 05:15:46;;;;;;;5.68;1.25;;;;;;;12.92;80.24;101587.91;5050802;28;20045;-64
2022/09/17 05:18:11;;;;;;;5.22;1.08;;;;;;;12.91;80.25;101589.69;5050481;28;20024;-65
2022/09/17 05:20:37;;;;;;;7.20;1.45;;;;;;;12.80;81.34;101594.44;5051701;28;20394;-66
2022/09/17 05:23:03;;;;;;;9.32;1.58;;;;;;;12.89;81.08;101597.66;5035600;28;20029;-65
2022/09/17 05:25:28;;;;;;;8.65;1.58;;;;;;;12.89;81.41;101595.00;5031183;28;20026;-64
2022/09/17 05:27:53;;;;;;;4.88;1.00;;;;;;;12.86;81.71;101605.69;5029677;28;20061;-65
2022/09/17 05:30:19;;;;;;;6.32;1.17;;;;;;;12.87;81.43;101607.44;5030390;28;20455;-65
2022/09/17 05:32:44;;;;;;;8.07;1.20;;;;;;;12.75;81.77;101616.63;5030831;28;20025;-64
2022/09/17 05:35:10;;;;;;;7.50;1.25;;;;;;;12.87;81.09;101609.22;5031131;28;20035;-64
2022/09/17 05:37:35;;;;;;;9.27;1.13;;;;;;;12.74;81.41;101621.97;5048502;28;20155;-64
2022/09/17 05:40:02;;;;;;;4.95;0.90;;;;;;;12.96;81.25;101616.88;5051320;28;20070;-66
2022/09/17 05:42:28;;;;;;;7.47;1.33;;;;;;;13.24;80.33;101612.44;5049705;28;20029;-64
2022/09/17 05:44:53;;;;;;;8.55;1.20;;;;;;;13.45;79.71;101613.53;5050608;28;20032;-65
2022/09/17 05:47:18;;;;;;;8.20;1.20;;;;;;;13.57;79.45;101612.28;5049689;28;20108;-65
2022/09/17 05:49:44;;;;;;;9.85;1.55;;;;;;;13.64;79.90;101613.78;5037598;28;20419;-65
2022/09/17 05:52:09;;;;;;;12.70;1.75;;;;;;;13.77;79.00;101616.03;5024136;28;20096;-66
2022/09/17 05:54:34;;;;;;;9.65;1.63;;;;;;;13.85;79.28;101608.66;5029896;28;20033;-64
2022/09/17 05:57:00;;;;;;;7.78;1.02;;;;;;;13.97;79.30;101606.50;5030536;28;20026;-65
2022/09/17 05:59:26;;;;;;;7.80;1.27;;;;;;;14.00;79.15;101611.69;5026066;28;20041;-64
2022/09/17 06:01:52;;;;;;;10.55;1.25;;;;;;;14.02;79.89;101609.84;5020663;28;20021;-65
2022/09/17 06:04:17;;;;;;;6.20;1.23;;;;;;;14.29;78.98;101638.91;5019686;28;20415;-65
2022/09/17 06:06:42;;;;;;;6.40;1.27;;;;;;;14.38;79.16;101674.81;5020888;28;20017;-64
2022/09/17 06:09:08;;;;;;;9.68;1.13;;;;;;;13.82;80.63;101666.19;5022619;28;20120;-65
2022/09/17 06:11:35;;;;;;;10.55;1.60;;;;;;;12.98;83.68;101661.78;5033320;28;20032;-66
2022/09/17 06:14:00;;;;;;;6.95;1.17;;;;;;;13.01;82.72;101641.38;5030137;28;20031;-67
2022/09/17 06:16:26;;;;;;;7.38;1.17;;;;;;;12.93;83.08;101638.13;5020374;28;20029;-65
2022/09/17 06:18:54;;;;;;;5.32;1.00;;;;;;;13.01;81.60;101628.16;5021946;28;20044;-65
2022/09/17 06:21:23;;;;;;;5.10;1.05;;;;;;;13.01;81.01;101622.84;5018356;28;20022;-65
2022/09/17 06:23:49;;;;;;;6.90;1.58;;;;;;;13.11;80.74;101619.94;5019047;28;20049;-64
2022/09/17 06:26:14;;;;;;;5.57;1.10;;;;;;;13.28;79.87;101640.56;5019357;28;20568;-66
2022/09/17 06:28:40;;;;;;;4.00;0.88;;;;;;;13.32;79.42;101642.19;5021690;28;20030;-67
2022/09/17 06:31:07;;;;;;;5.10;1.02;;;;;;;13.31;78.32;101642.25;5019063;28;20443;-66
2022/09/17 06:33:33;;;;;;;8.02;1.00;;;;;;;13.46;78.28;101644.38;5026514;28;20456;-67
2022/09/17 06:36:01;;;;;;;8.63;0.93;;;;;;;13.63;77.48;101651.78;5019714;28;20026;-67
2022/09/17 06:38:27;;;;;;;7.33;1.30;;;;;;;13.43;77.30;101656.84;5010203;28;20436;-68
2022/09/17 06:40:52;;;;;;;4.63;1.13;;;;;;;12.84;83.29;101667.50;5010015;28;20355;-68
2022/09/17 06:43:18;;;;;;;8.20;1.45;;;;;;;12.94;83.94;101662.81;5019322;28;20025;-66
2022/09/17 06:45:50;;;;;;;10.82;1.40;;;;;;;13.19;82.46;101651.44;5017390;28;20436;-66
2022/09/17 06:48:16;;;;;;;10.40;1.50;;;;;;;13.31;82.13;101644.88;5018222;28;20076;-65
2022/09/17 06:50:41;;;;;;;7.63;1.33;;;;;;;13.40;81.71;101650.72;5018573;28;20480;-66
2022/09/17 06:53:08;;;;;;;13.30;2.08;;;;;;;13.51;81.71;101644.25;5018656;28;20093;-68
2022/09/17 06:55:33;;;;;;;6.70;1.35;;;;;;;13.68;81.24;101650.75;5012091;28;20460;-66
2022/09/17 06:57:59;;;;;;;8.43;1.08;;;;;;;13.82;81.43;101647.66;5016473;28;20088;-66
2022/09/17 07:00:25;;;;;;;9.73;1.75;;;;;;;13.85;81.03;101648.38;5046664;28;20100;-65
2022/09/17 07:02:56;;;;;;;6.45;1.33;;;;;;;13.98;80.80;101645.31;5041238;28;20037;-63
2022/09/17 07:05:22;;;;;;;6.80;1.00;;;;;;;14.19;79.78;101642.81;5017556;28;20041;-67
2022/09/17 07:07:47;;;;;;;5.35;1.23;;;;;;;14.36;78.93;101645.69;5023900;28;20056;-66
2022/09/17 07:10:12;;;;;;;8.63;1.35;;;;;;;14.52;77.87;101639.84;5026689;28;20061;-66
2022/09/17 07:12:40;;;;;;;8.30;1.40;;;;;;;14.78;76.55;101635.38;5031175;28;20132;-66
2022/09/17 07:15:06;;;;;;;5.32;1.23;;;;;;;15.02;75.59;101641.47;5026129;28;20026;-70
2022/09/17 07:17:32;;;;;;;11.65;1.60;;;;;;;15.07;75.52;101635.97;5030878;28;20037;-67
2022/09/17 07:19:57;;;;;;;7.95;1.15;;;;;;;15.05;76.07;101644.94;5028755;28;20482;-66
2022/09/17 07:22:24;;;;;;;7.22;1.20;;;;;;;15.04;75.72;101641.41;5021826;28;20101;-66
2022/09/17 07:24:49;;;;;;;5.25;1.00;;;;;;;15.01;75.61;101649.50;5016684;28;20120;-66
2022/09/17 07:27:14;;;;;;;4.63;1.10;;;;;;;14.97;75.36;101645.25;5026510;28;20098;-66
2022/09/17 07:29:40;;;;;;;4.55;1.13;;;;;;;14.86;75.20;101637.69;5024630;28;20109;-69
2022/09/17 07:32:06;;;;;;;8.48;1.55;;;;;;;14.98;74.96;101649.63;5018168;28;20006;-66
2022/09/17 07:34:31;;;;;;;3.30;1.05;;;;;;;15.05;74.27;101639.63;5019250;28;20041;-66
2022/09/17 07:36:57;;;;;;;9.05;1.23;;;;;;;15.10;74.00;101645.59;5031743;28;20029;-66
2022/09/17 07:39:22;;;;;;;7.15;1.40;;;;;;;15.21;72.23;101640.75;5027025;28;20014;-66
2022/09/17 07:41:47;;;;;;;4.78;0.93;;;;;;;15.40;71.07;101643.50;5016920;28;20021;-66
2022/09/17 07:44:13;;;;;;;5.78;0.93;;;;;;;15.58;68.10;101641.00;5028487;28;20460;-65
2022/09/17 07:46:38;;;;;;;5.38;1.08;;;;;;;15.68;68.10;101644.13;5027529;28;20866;-65
2022/09/17 07:49:03;;;;;;;5.75;1.00;;;;;;;15.60;67.87;101679.00;5043233;28;20456;-66
2022/09/17 07:51:29;;;;;;;6.00;1.20;;;;;;;15.25;72.18;101660.94;5047758;28;20475;-64
2022/09/17 07:53:56;;;;;;;8.88;1.70;;;;;;;15.25;72.63;101674.19;5047300;28;20067;-66
2022/09/17 07:56:22;;;;;;;5.63;1.30;;;;;;;15.05;73.17;101664.38;5047438;28;20048;-65
2022/09/17 07:58:49;;;;;;;8.45;1.25;;;;;;;14.93;74.15;101671.03;5037378;28;20061;-64
2022/09/17 08:01:15;;;;;;;9.15;1.35;;;;;;;14.87;74.46;101671.28;5020203;28;20223;-66
2022/09/17 08:03:42;;;;;;;10.70;1.30;;;;;;;14.70;74.36;101663.94;5020076;28;20112;-66
2022/09/17 08:06:09;;;;;;;5.35;1.10;;;;;;;14.53;75.59;101668.94;5016664;28;20034;-66
2022/09/17 08:08:35;;;;;;;5.63;1.15;;;;;;;14.57;75.56;101675.00;5016155;28;20021;-66
2022/09/17 08:11:09;;;;;;;7.72;1.42;;;;;;;14.60;75.18;101669.56;5014953;28;20037;-66
2022/09/17 08:13:35;;;;;;;5.05;1.13;;;;;;;14.68;76.15;101658.69;5016237;28;20117;-67
2022/09/17 08:16:02;;;;;;;4.90;0.93;;;;;;;14.75;75.53;101659.31;5016025;28;20112;-67
2022/09/17 08:18:28;;;;;;;5.07;0.80;;;;;;;14.93;73.62;101651.59;5014358;28;20452;-66
2022/09/17 08:20:58;;;;;;;3.65;0.73;;;;;;;15.21;72.17;101653.16;5013785;28;20029;-64
2022/09/17 08:23:27;;;;;;;5.30;0.95;;;;;;;15.29;71.80;101659.00;5022859;28;20080;-67
2022/09/17 08:25:53;;;;;;;;;;;;;;;15.53;70.94;101658.91;5025510;28;20021;-63
2022/09/17 08:28:18;;;;;;;4.13;1.10;;;;;;;15.47;71.33;101675.13;5029173;28;20421;-63
2022/09/17 08:30:45;;;;;;;7.97;1.10;;;;;;;15.44;71.95;101677.91;5024583;28;20426;-67
2022/09/17 08:33:10;;;;;;;5.55;1.55;;;;;;;15.49;73.26;101686.53;5026380;28;20025;-68
2022/09/17 08:35:35;;;;;;;4.90;1.00;;;;;;;15.86;73.08;101677.00;5022902;28;20360;-65
2022/09/17 08:38:01;;;;;;;5.38;1.00;;;;;;;15.93;71.26;101682.94;5025452;28;20392;-66
2022/09/17 08:40:26;;;;;;;8.32;1.08;;;;;;;15.87;70.76;101699.97;5021643;28;20399;-67
2022/09/17 08:42:56;;;;;;;4.72;1.42;;;;;;;15.89;72.48;101698.13;5021796;28;20033;-66
2022/09/17 08:45:22;;;;;;;3.60;0.82;;;;;;;15.52;70.48;101686.41;5021071;28;20028;-67
2022/09/17 08:47:48;;;;;;;3.58;0.52;;;;;;;15.72;68.85;101682.94;5025131;28;20128;-66
2022/09/17 08:50:17;;;;;;;0.90;0.40;;;;;;;15.71;67.23;101667.91;5028285;28;20018;-65
2022/09/17 08:52:54;;;;;;;3.13;0.40;;;;;;;15.53;67.76;101672.19;5024627;28;20030;-65
2022/09/17 08:55:44;;;;;;;5.25;0.68;;;;;;;15.66;68.24;101665.44;5028425;28;20034;-65
2022/09/17 08:58:26;;;;;;;3.83;1.00;;;;;;;15.87;67.98;101668.09;5024324;28;20025;-66
2022/09/17 09:01:10;;;;;;;3.92;1.10;;;;;;;15.99;68.63;101676.53;5028184;28;20360;-65
2022/09/17 09:04:08;;;;;;;4.65;1.17;;;;;;;16.05;68.50;101662.97;5022484;28;20081;-66
2022/09/17 09:06:59;;;;;;;1.88;0.60;;;;;;;16.41;68.88;101675.53;5022133;28;20088;-65
2022/09/17 09:09:29;;;;;;;4.03;0.85;;;;;;;16.89;67.80;101675.13;5026998;28;20033;-65
2022/09/17 09:12:02;;;;;;;5.78;1.13;;;;;;;17.09;67.56;101683.13;5026501;28;20017;-67
2022/09/17 09:14:38;;;;;;;8.63;1.35;;;;;;;16.65;70.23;101696.63;5023448;28;20048;-65
2022/09/17 09:17:07;;;;;;;6.22;0.90;;;;;;;16.02;72.07;101706.47;5024958;28;20017;-67
2022/09/17 09:19:36;;;;;;;;;;;;;;;15.87;73.45;101694.66;5029297;28;20104;-67
2022/09/17 09:22:04;;;;;;;4.45;0.88;;;;;;;15.87;72.00;101697.31;5024978;28;19917;-65
2022/09/17 09:25:05;;;;;;;4.93;0.90;;;;;;;16.06;70.36;101691.25;5026838;28;20028;-66
2022/09/17 09:27:44;;;;;;;4.65;0.88;;;;;;;16.02;69.89;101687.88;5013406;28;20365;-68
2022/09/17 09:30:12;;;;;;;2.95;0.70;;;;;;;16.01;70.77;101679.97;5040495;28;20052;-67
2022/09/17 09:32:43;;;;;;;5.53;0.90;;;;;;;16.38;69.84;101694.28;5031247;28;20347;-68
2022/09/17 09:35:18;;;;;;;6.32;0.98;;;;;;;16.65;70.25;101687.78;5025493;28;20491;-67
2022/09/17 09:37:50;;;;;;;8.52;1.17;;;;;;;16.55;70.38;101695.31;5030004;28;20419;-66
2022/09/17 09:40:36;;;;;;;3.80;1.10;;;;;;;16.70;69.71;101698.22;5026806;28;20021;-68
2022/09/17 09:43:52;;;;;;;5.43;1.08;;;;;;;16.90;70.13;101695.50;5029136;28;20049;-66
2022/09/17 09:46:34;;;;;;;9.35;1.10;;;;;;;16.97;68.95;101680.09;4998117;28;20056;-66
2022/09/17 09:49:14;;;;;;;6.00;1.35;;;;;;;16.93;69.09;101683.84;5025533;28;20014;-69
2022/09/17 09:52:17;;;;;;;7.35;1.00;;;;;;;17.03;70.49;101682.47;5024967;28;20491;-69
2022/09/17 09:55:00;;;;;;;8.38;1.17;;;;;;;17.30;69.91;101675.88;5025321;28;20033;-65
2022/09/17 09:57:49;;;;;;;8.60;1.50;;;;;;;17.40;69.26;101669.16;5024575;28;20029;-64
2022/09/17 10:00:21;;;;;;;;;;;;;;;17.57;68.04;101666.63;5017924;28;20026;-65
2022/09/17 10:02:47;;;;;;;8.02;1.10;;;;;;;18.22;66.11;101659.75;5024336;28;19936;-67
2022/09/17 10:05:12;;;;;;;7.50;1.25;;;;;;;18.47;64.91;101671.75;5028644;28;20029;-64
2022/09/17 10:07:45;;;;;;;10.75;1.45;;;;;;;17.91;66.91;101713.72;5028344;28;20690;-67
2022/09/17 10:10:10;;;;;;;13.07;1.58;;;;;;;17.01;69.26;101692.31;5029918;28;20030;-67
2022/09/17 10:12:35;;;;;;;11.65;2.08;;;;;;;16.98;70.01;101686.28;5030613;28;20468;-65
2022/09/17 10:15:24;;;;;;;11.82;1.80;;;;;;;16.91;68.07;101681.25;5029004;28;20091;-65
2022/09/17 10:18:03;;;;;;;;;;;;;;;16.44;71.77;101682.53;5030597;28;20415;-64
2022/09/17 10:20:29;;;;;;;9.57;2.92;;;;;;;16.87;69.16;101684.13;5028747;28;19940;-65
2022/09/17 10:22:54;;;;;;;7.18;2.88;;;;;;;17.16;68.92;101682.75;5028519;28;20064;-66
2022/09/17 10:25:30;;;;;;;9.30;2.15;;;;;;;17.35;68.17;101673.88;5028556;28;20068;-65
2022/09/17 10:27:57;;;;;;;15.15;1.98;;;;;;;17.51;66.81;101686.41;5044808;28;20029;-69
2022/09/17 10:30:24;;;;;;;12.55;1.83;;;;;;;17.42;63.01;101685.94;5026778;28;20022;-66
2022/09/17 10:33:11;;;;;;;13.25;2.20;;;;;;;17.46;63.03;101675.13;5008347;28;20376;-69
2022/09/17 10:35:36;;;;;;;11.77;2.10;;;;;;;17.24;62.09;101676.19;5024162;28;20033;-66
2022/09/17 10:38:01;;;;;;;11.57;1.83;;;;;;;17.28;59.45;101672.44;5010046;28;20018;-65
2022/09/17 10:40:30;;;;;;;5.53;1.48;;;;;;;17.28;59.25;101677.78;5009176;28;20048;-67
2022/09/17 10:43:10;;;;;;;7.23;1.57;;;;;;;17.60;59.75;101677.09;5012838;28;20025;-66
2022/09/17 10:45:38;;;;;;;9.70;1.70;;;;;;;17.14;62.13;101695.28;5028465;28;20037;-63
2022/09/17 10:48:03;;;;;;;11.02;2.42;;;;;;;16.90;66.04;101684.84;5028825;28;20434;-65
2022/09/17 10:50:33;;;;;;;15.05;2.45;;;;;;;16.99;67.58;101674.69;5029445;28;20112;-65
2022/09/17 10:53:04;;;;;;;12.32;2.33;;;;;;;16.73;66.87;101676.78;5043972;28;20032;-66
2022/09/17 10:55:38;;;;;;;10.82;1.95;;;;;;;17.26;64.84;101671.66;5021093;28;20041;-66
2022/09/17 10:58:13;;;;;;;9.30;2.10;;;;;;;17.28;65.29;101661.81;5017805;28;20671;-68
2022/09/17 11:01:01;;;;;;;12.60;1.98;;;;;;;17.71;65.14;101665.91;5023773;28;20129;-64
2022/09/17 11:04:04;;;;;;;14.75;2.20;;;;;;;18.02;63.77;101662.50;5010955;28;20049;-65
2022/09/17 11:06:55;;;;;;;9.07;2.10;;;;;;;18.20;62.42;101659.84;5032801;28;20037;-66
2022/09/17 11:09:54;;;;;;;11.27;2.25;;;;;;;18.21;59.37;101676.72;5018118;28;20029;-66
2022/09/17 11:12:29;;;;;;;9.63;2.30;;;;;;;17.94;56.77;101672.69;5019373;28;20029;-64
2022/09/17 11:15:32;;;;;;;5.72;1.67;;;;;;;17.88;53.32;101663.22;5016390;28;20036;-65
2022/09/17 11:18:22;;;;;;;9.82;1.80;;;;;;;18.05;50.72;101661.47;5027845;28;20120;-66
2022/09/17 11:21:09;;;;;;;8.38;1.63;;;;;;;18.36;51.49;101651.88;5028298;28;20487;-65
2022/09/17 11:23:53;;;;;;;9.10;1.50;;;;;;;18.25;51.00;101656.94;5028262;28;20079;-69
2022/09/17 11:26:41;;;;;;;11.80;2.10;;;;;;;18.89;51.94;101657.00;5028828;28;20413;-64
2022/09/17 11:29:40;;;;;;;12.70;2.03;;;;;;;19.01;50.34;101674.13;5028288;28;20084;-66
2022/09/17 11:32:38;;;;;;;14.38;2.50;;;;;;;18.87;51.54;101653.53;5036063;28;20443;-67
2022/09/17 11:35:14;;;;;;;12.18;2.25;;;;;;;18.48;52.95;101670.84;5048020;28;20056;-67
2022/09/17 11:37:47;;;;;;;10.95;2.10;;;;;;;17.74;50.68;101668.41;5045698;28;20037;-67
2022/09/17 11:40:31;;;;;;;8.77;1.95;;;;;;;17.75;50.68;101675.44;5046990;28;20056;-67
2022/09/17 11:43:19;;;;;;;12.75;2.42;;;;;;;18.23;51.78;101665.00;5047316;28;20453;-64